createdAt,value
2018-11-22T12:16:14.526Z,21.00
2018-11-22T12:18:43.362Z,21.10
2018-11-22T12:21:11.505Z,21.10
2018-11-22T12:23:39.708Z,19.20
2018-11-22T12:26:07.894Z,19.40
2018-11-22T12:28:36.039Z,20.00
2018-11-22T12:31:06.624Z,18.60
2018-11-22T12:33:38.858Z,19.40
2018-11-22T12:36:12.535Z,18.90
2018-11-22T12:38:40.635Z,18.00
2018-11-22T12:41:08.799Z,18.40
2018-11-22T12:43:36.970Z,17.30
2018-11-22T12:46:05.574Z,17.40
2018-11-22T12:48:33.867Z,17.20
2018-11-22T12:51:02.111Z,16.90
2018-11-22T12:53:30.326Z,16.70
2018-11-22T12:55:58.473Z,15.70
2018-11-22T12:58:27.366Z,16.40
2018-11-22T13:00:55.950Z,17.20
2018-11-22T13:03:24.139Z,18.10
2018-11-22T13:05:52.284Z,17.90
2018-11-22T13:08:20.487Z,17.70
2018-11-22T13:10:48.743Z,16.70
2018-11-22T13:13:16.942Z,16.30
2018-11-22T13:15:45.171Z,15.90
2018-11-22T13:18:13.370Z,15.40
2018-11-22T13:20:41.534Z,15.00
2018-11-22T13:23:09.734Z,13.10
2018-11-22T13:25:37.914Z,11.80
2018-11-22T13:28:06.151Z,11.40
2018-11-22T13:30:34.314Z,9.50
2018-11-22T13:33:02.497Z,8.80
2018-11-22T13:35:30.680Z,8.60
2018-11-22T13:37:58.877Z,8.30
2018-11-22T13:40:27.050Z,9.20
2018-11-22T13:42:55.723Z,10.10
2018-11-22T13:45:25.322Z,11.50
2018-11-22T13:47:54.416Z,12.40
2018-11-22T13:50:25.150Z,13.20
2018-11-22T13:52:54.844Z,13.70
2018-11-22T13:55:23.071Z,14.00
2018-11-22T13:57:51.303Z,14.50
2018-11-22T14:00:26.438Z,14.80
2018-11-22T14:02:56.150Z,15.30
2018-11-22T14:05:24.299Z,15.60
2018-11-22T14:07:52.508Z,15.90
2018-11-22T14:10:21.273Z,15.80
2018-11-22T14:12:49.650Z,16.10
2018-11-22T14:15:19.151Z,15.80
2018-11-22T14:17:47.939Z,16.00
2018-11-22T14:20:18.634Z,16.00
2018-11-22T14:22:46.628Z,16.20
2018-11-22T14:25:15.546Z,16.30
2018-11-22T14:27:44.613Z,16.60
2018-11-22T14:30:14.358Z,16.90
2018-11-22T14:32:43.223Z,16.40
2018-11-22T14:35:12.534Z,16.80
2018-11-22T14:37:41.013Z,16.40
2018-11-22T14:40:13.686Z,16.20
2018-11-22T14:42:42.074Z,16.80
2018-11-22T14:45:11.382Z,16.80
2018-11-22T14:47:39.994Z,17.10
2018-11-22T14:50:11.405Z,17.30
2018-11-22T14:52:40.258Z,17.30
2018-11-22T14:55:08.917Z,17.70
2018-11-22T14:57:37.395Z,17.40
2018-11-22T15:00:09.156Z,17.60
2018-11-22T15:02:37.330Z,17.80
2018-11-22T15:05:06.115Z,17.90
2018-11-22T15:07:34.283Z,18.00
2018-11-22T15:10:02.450Z,18.20
2018-11-22T15:12:30.626Z,18.10
2018-11-22T15:14:58.786Z,18.20
2018-11-22T15:17:26.921Z,18.60
2018-11-22T15:19:55.126Z,19.00
2018-11-22T15:22:23.302Z,19.00
2018-11-22T15:24:51.443Z,19.00
2018-11-22T15:27:19.642Z,19.00
2018-11-22T15:29:47.845Z,19.00
2018-11-22T15:32:15.966Z,19.00
2018-11-22T15:34:44.142Z,18.90
2018-11-22T15:37:12.317Z,18.90
2018-11-22T15:39:40.491Z,18.90
2018-11-22T15:42:08.675Z,19.20
2018-11-22T15:44:36.821Z,19.30
2018-11-22T15:47:05.687Z,19.20
2018-11-22T15:49:33.849Z,19.50
2018-11-22T15:52:02.024Z,19.60
2018-11-22T15:54:30.213Z,19.60
2018-11-22T15:56:58.382Z,19.70
2018-11-22T15:59:26.573Z,20.00
2018-11-22T16:01:54.716Z,20.00
2018-11-22T16:04:22.951Z,20.10
2018-11-22T16:06:51.098Z,20.20
2018-11-22T16:09:19.350Z,20.30
2018-11-22T16:11:47.494Z,20.50
2018-11-22T16:14:15.674Z,20.50
2018-11-22T16:16:43.895Z,20.30
2018-11-22T16:19:12.059Z,20.40
2018-11-22T16:21:40.212Z,20.70
2018-11-22T16:24:09.472Z,20.90
2018-11-22T16:26:37.646Z,20.90
2018-11-22T16:29:05.982Z,21.00
2018-11-22T16:31:34.158Z,21.00
2018-11-22T16:34:02.330Z,21.00
2018-11-22T16:36:30.498Z,21.10
2018-11-22T16:38:58.661Z,21.30
2018-11-22T16:41:26.824Z,21.40
2018-11-22T16:43:54.995Z,21.30
2018-11-22T16:46:23.189Z,21.50
2018-11-22T16:48:51.386Z,21.80
2018-11-22T16:51:19.534Z,21.70
2018-11-22T16:53:47.718Z,21.70
2018-11-22T16:56:15.950Z,21.70
2018-11-22T16:58:44.123Z,21.70
2018-11-22T17:01:12.294Z,21.70
2018-11-22T17:03:40.470Z,21.80
2018-11-22T17:06:08.657Z,22.00
2018-11-22T17:08:36.870Z,22.00
2018-11-22T17:11:05.126Z,22.00
2018-11-22T17:13:33.312Z,22.00
2018-11-22T17:16:01.556Z,22.00
2018-11-22T17:18:29.754Z,21.90
2018-11-22T17:20:57.962Z,21.80
2018-11-22T17:23:26.134Z,21.90
2018-11-22T17:25:54.285Z,21.60
2018-11-22T17:28:22.468Z,21.50
2018-11-22T17:30:50.631Z,21.50
2018-11-22T17:33:18.815Z,21.60
2018-11-22T17:35:46.949Z,21.60
2018-11-22T17:38:15.192Z,21.50
2018-11-22T17:40:44.869Z,21.50
2018-11-22T17:43:13.018Z,21.60
2018-11-22T17:45:43.558Z,21.70
2018-11-22T17:48:11.850Z,21.70
2018-11-22T17:50:41.437Z,21.80
2018-11-22T17:53:10.238Z,21.60
2018-11-22T17:55:38.464Z,21.70
2018-11-22T17:58:06.665Z,22.10
2018-11-22T18:00:36.283Z,22.20
2018-11-22T18:03:05.280Z,22.30
2018-11-22T18:05:33.770Z,22.20
2018-11-22T18:08:01.941Z,22.10
2018-11-22T18:10:31.666Z,22.30
2018-11-22T18:13:00.408Z,22.30
2018-11-22T18:15:29.963Z,22.60
2018-11-22T18:17:58.397Z,22.20
2018-11-22T18:20:28.336Z,22.10
2018-11-22T18:22:58.008Z,22.00
2018-11-22T18:25:27.546Z,22.10
2018-11-22T18:27:56.110Z,22.20
2018-11-22T18:30:27.698Z,22.10
2018-11-22T18:32:57.378Z,22.30
2018-11-22T18:35:25.564Z,22.40
2018-11-22T18:37:53.747Z,22.50
2018-11-22T18:40:23.138Z,22.50
2018-11-22T18:42:52.426Z,22.80
2018-11-22T18:45:25.879Z,22.90
2018-11-22T18:47:54.406Z,23.10
2018-11-22T18:50:23.917Z,22.90
2018-11-22T18:52:52.164Z,23.10
2018-11-22T18:55:20.386Z,23.60
2018-11-22T18:57:49.305Z,22.90
2018-11-22T19:00:21.831Z,22.90
2018-11-22T19:02:50.263Z,23.00
2018-11-22T19:05:18.902Z,22.80
2018-11-22T19:07:48.181Z,23.00
2018-11-22T19:10:21.986Z,23.00
2018-11-22T19:12:51.018Z,22.90
2018-11-22T19:15:20.675Z,23.00
2018-11-22T19:17:49.170Z,23.00
2018-11-22T19:20:19.818Z,23.40
2018-11-22T19:22:48.840Z,23.50
2018-11-22T19:25:17.718Z,23.60
2018-11-22T19:27:46.062Z,23.40
2018-11-22T19:30:18.434Z,23.50
2018-11-22T19:32:47.750Z,23.40
2018-11-22T19:35:17.362Z,23.30
2018-11-22T19:37:46.071Z,23.20
2018-11-22T19:40:23.082Z,23.20
2018-11-22T19:42:52.627Z,23.30
2018-11-22T19:45:22.122Z,23.70
2018-11-22T19:47:50.523Z,23.70
2018-11-22T19:50:20.194Z,23.90
2018-11-22T19:52:49.110Z,23.90
2018-11-22T19:55:18.614Z,23.90
2018-11-22T19:57:48.240Z,24.10
2018-11-22T20:00:17.518Z,24.00
2018-11-22T20:02:46.202Z,23.80
2018-11-22T20:05:16.544Z,23.90
2018-11-22T20:07:45.826Z,24.10
2018-11-22T20:10:16.282Z,24.00
2018-11-22T20:12:44.634Z,24.30
2018-11-22T20:15:13.773Z,24.20
2018-11-22T20:17:42.918Z,24.20
2018-11-22T20:20:12.363Z,24.80
2018-11-22T20:22:40.986Z,24.40
2018-11-22T20:25:09.138Z,24.30
2018-11-22T20:27:37.857Z,24.50
2018-11-22T20:30:11.990Z,24.40
2018-11-22T20:32:40.470Z,24.40
2018-11-22T20:35:10.568Z,24.40
2018-11-22T20:37:38.747Z,24.40
2018-11-22T20:40:08.043Z,24.30
2018-11-22T20:42:36.307Z,24.10
2018-11-22T20:45:06.090Z,24.10
2018-11-22T20:47:35.549Z,24.20
2018-11-22T20:50:04.022Z,24.10
2018-11-22T20:52:33.518Z,24.10
2018-11-22T20:55:01.661Z,24.40
2018-11-22T20:57:29.811Z,24.10
2018-11-22T20:59:57.940Z,24.10
2018-11-22T21:02:26.511Z,24.20
2018-11-22T21:04:54.666Z,24.40
2018-11-22T21:07:22.866Z,24.50
2018-11-22T21:09:51.211Z,24.40
2018-11-22T21:12:19.373Z,24.60
2018-11-22T21:14:47.585Z,24.50
2018-11-22T21:17:15.762Z,24.60
2018-11-22T21:19:43.967Z,24.70
2018-11-22T21:22:12.571Z,24.60
2018-11-22T21:24:40.701Z,24.60
2018-11-22T21:27:12.573Z,24.60
2018-11-22T21:29:52.350Z,24.80
2018-11-22T21:32:20.732Z,24.80
2018-11-22T21:34:48.893Z,24.90
2018-11-22T21:37:17.079Z,24.90
2018-11-22T21:39:45.236Z,25.00
2018-11-22T21:42:13.650Z,24.90
2018-11-22T21:44:41.798Z,25.00
2018-11-22T21:47:10.152Z,24.80
2018-11-22T21:49:38.297Z,25.00
2018-11-22T21:52:06.514Z,25.10
2018-11-22T21:54:34.711Z,25.20
2018-11-22T21:57:02.877Z,25.40
2018-11-22T21:59:31.019Z,25.20
2018-11-22T22:01:59.209Z,25.30
2018-11-22T22:04:27.356Z,25.50
2018-11-22T22:06:55.550Z,25.70
2018-11-22T22:09:23.720Z,25.80
2018-11-22T22:11:51.937Z,25.80
2018-11-22T22:14:20.098Z,25.70
2018-11-22T22:16:48.274Z,25.80
2018-11-22T22:19:16.447Z,25.90
2018-11-22T22:21:44.822Z,25.60
2018-11-22T22:24:13.035Z,25.30
2018-11-22T22:26:41.255Z,25.20
2018-11-22T22:29:09.430Z,25.40
2018-11-22T22:31:37.594Z,25.50
2018-11-22T22:34:05.902Z,25.60
2018-11-22T22:36:34.051Z,25.50
2018-11-22T22:39:02.216Z,25.80
2018-11-22T22:41:30.422Z,25.90
2018-11-22T22:43:58.609Z,26.10
2018-11-22T22:46:26.794Z,26.30
2018-11-22T22:48:54.978Z,26.40
2018-11-22T22:51:23.130Z,26.60
2018-11-22T22:53:51.358Z,26.70
2018-11-22T22:56:19.544Z,26.60
2018-11-22T22:58:47.707Z,26.50
2018-11-22T23:01:16.173Z,26.60
2018-11-22T23:03:44.331Z,26.70
2018-11-22T23:06:12.478Z,26.30
2018-11-22T23:08:40.679Z,26.30
2018-11-22T23:11:08.842Z,26.80
2018-11-22T23:13:36.982Z,26.50
2018-11-22T23:16:05.210Z,26.40
2018-11-22T23:18:33.406Z,26.30
2018-11-22T23:21:01.563Z,26.50
2018-11-22T23:23:29.736Z,26.40
2018-11-22T23:25:57.909Z,26.40
2018-11-22T23:28:26.122Z,26.50
2018-11-22T23:30:54.282Z,26.70
2018-11-22T23:33:22.444Z,26.80
2018-11-22T23:35:50.563Z,27.00
2018-11-22T23:38:18.730Z,26.90
2018-11-22T23:40:46.899Z,27.00
2018-11-22T23:43:15.087Z,26.60
2018-11-22T23:45:43.260Z,26.80
2018-11-22T23:48:11.434Z,26.80
2018-11-22T23:50:39.589Z,26.80
2018-11-22T23:53:07.754Z,27.00
2018-11-22T23:55:35.876Z,26.80
2018-11-22T23:58:04.086Z,27.00
